sensor_id;sensor_type;location;lat;lon;timestamp;P1;durP1;ratioP1;P2;durP2;ratioP2
61013;SDS011;46899;47.542;19.082;2024-03-06T00:02:41;36.47;;;22.08;;
61013;SDS011;46899;47.542;19.082;2024-03-06T00:05:55;39.42;;;23.10;;
61013;SDS011;46899;47.542;19.082;2024-03-06T00:09:06;39.17;;;21.85;;
61013;SDS011;46899;47.542;19.082;2024-03-06T00:12:25;38.88;;;21.92;;
61013;SDS011;46899;47.542;19.082;2024-03-06T00:15:39;37.47;;;22.02;;
61013;SDS011;46899;47.542;19.082;2024-03-06T00:18:59;37.50;;;21.92;;
61013;SDS011;46899;47.542;19.082;2024-03-06T00:22:13;40.15;;;22.15;;
61013;SDS011;46899;47.542;19.082;2024-03-06T00:25:33;36.97;;;22.65;;
61013;SDS011;46899;47.542;19.082;2024-03-06T00:28:52;39.60;;;23.77;;
61013;SDS011;46899;47.542;19.082;2024-03-06T00:32:12;37.10;;;21.65;;
61013;SDS011;46899;47.542;19.082;2024-03-06T00:35:28;36.85;;;21.77;;
61013;SDS011;46899;47.542;19.082;2024-03-06T00:38:43;39.53;;;22.40;;
61013;SDS011;46899;47.542;19.082;2024-03-06T00:41:50;40.65;;;22.17;;
61013;SDS011;46899;47.542;19.082;2024-03-06T00:45:04;39.72;;;22.23;;
61013;SDS011;46899;47.542;19.082;2024-03-06T00:48:20;38.20;;;23.25;;
61013;SDS011;46899;47.542;19.082;2024-03-06T00:54:56;38.03;;;22.73;;
61013;SDS011;46899;47.542;19.082;2024-03-06T00:58:18;39.22;;;21.85;;
61013;SDS011;46899;47.542;19.082;2024-03-06T01:01:32;43.42;;;24.25;;
61013;SDS011;46899;47.542;19.082;2024-03-06T01:04:50;39.13;;;22.33;;
61013;SDS011;46899;47.542;19.082;2024-03-06T01:07:54;42.05;;;23.80;;
61013;SDS011;46899;47.542;19.082;2024-03-06T01:11:09;42.72;;;23.30;;
61013;SDS011;46899;47.542;19.082;2024-03-06T01:14:29;41.45;;;22.75;;
61013;SDS011;46899;47.542;19.082;2024-03-06T01:17:49;41.80;;;23.62;;
61013;SDS011;46899;47.542;19.082;2024-03-06T01:21:02;39.30;;;23.00;;
61013;SDS011;46899;47.542;19.082;2024-03-06T01:24:22;41.63;;;23.00;;
61013;SDS011;46899;47.542;19.082;2024-03-06T01:27:34;44.20;;;23.73;;
61013;SDS011;46899;47.542;19.082;2024-03-06T01:30:45;43.63;;;23.67;;
61013;SDS011;46899;47.542;19.082;2024-03-06T01:34:01;37.17;;;22.42;;
61013;SDS011;46899;47.542;19.082;2024-03-06T01:37:16;41.05;;;23.55;;
61013;SDS011;46899;47.542;19.082;2024-03-06T01:40:30;37.60;;;22.52;;
61013;SDS011;46899;47.542;19.082;2024-03-06T01:43:49;40.12;;;22.60;;
61013;SDS011;46899;47.542;19.082;2024-03-06T01:47:03;40.85;;;22.35;;
61013;SDS011;46899;47.542;19.082;2024-03-06T01:50:21;42.30;;;23.52;;
61013;SDS011;46899;47.542;19.082;2024-03-06T01:53:33;44.97;;;23.75;;
61013;SDS011;46899;47.542;19.082;2024-03-06T01:56:49;42.28;;;23.92;;
61013;SDS011;46899;47.542;19.082;2024-03-06T02:00:10;39.90;;;23.00;;
61013;SDS011;46899;47.542;19.082;2024-03-06T02:03:28;40.00;;;22.67;;
61013;SDS011;46899;47.542;19.082;2024-03-06T02:06:46;43.05;;;24.15;;
61013;SDS011;46899;47.542;19.082;2024-03-06T02:10:11;43.65;;;24.80;;
61013;SDS011;46899;47.542;19.082;2024-03-06T02:13:26;43.53;;;23.25;;
61013;SDS011;46899;47.542;19.082;2024-03-06T02:16:42;40.75;;;24.10;;
61013;SDS011;46899;47.542;19.082;2024-03-06T02:19:52;46.53;;;24.00;;
61013;SDS011;46899;47.542;19.082;2024-03-06T02:23:09;41.75;;;23.70;;
61013;SDS011;46899;47.542;19.082;2024-03-06T02:26:20;44.90;;;25.23;;
61013;SDS011;46899;47.542;19.082;2024-03-06T02:29:33;41.97;;;23.85;;
61013;SDS011;46899;47.542;19.082;2024-03-06T02:32:44;44.13;;;25.25;;
61013;SDS011;46899;47.542;19.082;2024-03-06T02:35:54;45.12;;;24.12;;
61013;SDS011;46899;47.542;19.082;2024-03-06T02:39:05;47.25;;;24.23;;
61013;SDS011;46899;47.542;19.082;2024-03-06T02:42:17;43.95;;;24.27;;
61013;SDS011;46899;47.542;19.082;2024-03-06T02:45:30;43.08;;;24.00;;
61013;SDS011;46899;47.542;19.082;2024-03-06T02:48:42;45.12;;;25.20;;
61013;SDS011;46899;47.542;19.082;2024-03-06T02:51:54;46.58;;;23.77;;
61013;SDS011;46899;47.542;19.082;2024-03-06T02:55:06;42.15;;;23.30;;
61013;SDS011;46899;47.542;19.082;2024-03-06T02:58:14;44.20;;;25.17;;
61013;SDS011;46899;47.542;19.082;2024-03-06T03:01:29;44.80;;;23.83;;
61013;SDS011;46899;47.542;19.082;2024-03-06T03:04:42;41.70;;;22.62;;
61013;SDS011;46899;47.542;19.082;2024-03-06T03:07:51;44.78;;;24.48;;
61013;SDS011;46899;47.542;19.082;2024-03-06T03:11:01;47.13;;;23.77;;
61013;SDS011;46899;47.542;19.082;2024-03-06T03:14:16;43.08;;;24.17;;
61013;SDS011;46899;47.542;19.082;2024-03-06T03:17:27;44.67;;;23.52;;
61013;SDS011;46899;47.542;19.082;2024-03-06T03:20:42;44.50;;;22.87;;
61013;SDS011;46899;47.542;19.082;2024-03-06T03:23:54;40.45;;;23.12;;
61013;SDS011;46899;47.542;19.082;2024-03-06T03:27:11;45.58;;;23.90;;
61013;SDS011;46899;47.542;19.082;2024-03-06T03:30:25;47.08;;;25.27;;
61013;SDS011;46899;47.542;19.082;2024-03-06T03:33:41;48.35;;;25.80;;
61013;SDS011;46899;47.542;19.082;2024-03-06T03:36:56;49.50;;;24.50;;
61013;SDS011;46899;47.542;19.082;2024-03-06T03:40:10;43.40;;;23.70;;
61013;SDS011;46899;47.542;19.082;2024-03-06T03:43:21;45.53;;;24.23;;
61013;SDS011;46899;47.542;19.082;2024-03-06T03:46:35;43.35;;;23.87;;
61013;SDS011;46899;47.542;19.082;2024-03-06T03:49:46;43.17;;;24.45;;
61013;SDS011;46899;47.542;19.082;2024-03-06T03:53:16;45.12;;;24.48;;
61013;SDS011;46899;47.542;19.082;2024-03-06T03:56:20;47.70;;;24.42;;
61013;SDS011;46899;47.542;19.082;2024-03-06T03:59:28;47.25;;;25.30;;
61013;SDS011;46899;47.542;19.082;2024-03-06T04:02:35;50.03;;;26.23;;
61013;SDS011;46899;47.542;19.082;2024-03-06T04:05:47;45.35;;;24.33;;
61013;SDS011;46899;47.542;19.082;2024-03-06T04:09:00;51.37;;;27.30;;
61013;SDS011;46899;47.542;19.082;2024-03-06T04:12:11;46.37;;;24.17;;
61013;SDS011;46899;47.542;19.082;2024-03-06T04:15:24;50.47;;;26.00;;
61013;SDS011;46899;47.542;19.082;2024-03-06T04:18:36;47.65;;;24.37;;
61013;SDS011;46899;47.542;19.082;2024-03-06T04:21:48;44.90;;;23.23;;
61013;SDS011;46899;47.542;19.082;2024-03-06T04:25:00;40.88;;;23.77;;
61013;SDS011;46899;47.542;19.082;2024-03-06T04:28:15;44.00;;;24.08;;
61013;SDS011;46899;47.542;19.082;2024-03-06T04:31:26;43.22;;;22.60;;
61013;SDS011;46899;47.542;19.082;2024-03-06T04:34:36;45.25;;;23.87;;
61013;SDS011;46899;47.542;19.082;2024-03-06T04:37:47;40.50;;;24.05;;
61013;SDS011;46899;47.542;19.082;2024-03-06T04:40:57;40.70;;;22.37;;
61013;SDS011;46899;47.542;19.082;2024-03-06T04:44:12;42.50;;;23.05;;
61013;SDS011;46899;47.542;19.082;2024-03-06T04:47:24;46.37;;;23.00;;
61013;SDS011;46899;47.542;19.082;2024-03-06T04:50:35;44.13;;;23.52;;
61013;SDS011;46899;47.542;19.082;2024-03-06T04:53:46;41.85;;;22.70;;
61013;SDS011;46899;47.542;19.082;2024-03-06T04:56:56;41.50;;;23.02;;
61013;SDS011;46899;47.542;19.082;2024-03-06T05:00:16;39.10;;;21.55;;
61013;SDS011;46899;47.542;19.082;2024-03-06T05:03:26;43.42;;;22.50;;
61013;SDS011;46899;47.542;19.082;2024-03-06T05:06:50;45.50;;;23.53;;
61013;SDS011;46899;47.542;19.082;2024-03-06T05:10:15;39.28;;;23.20;;
61013;SDS011;46899;47.542;19.082;2024-03-06T05:13:40;43.35;;;22.42;;
61013;SDS011;46899;47.542;19.082;2024-03-06T05:17:08;46.60;;;23.17;;
61013;SDS011;46899;47.542;19.082;2024-03-06T05:20:34;45.03;;;23.87;;
61013;SDS011;46899;47.542;19.082;2024-03-06T05:23:59;44.70;;;23.33;;
61013;SDS011;46899;47.542;19.082;2024-03-06T05:27:27;44.58;;;24.05;;
61013;SDS011;46899;47.542;19.082;2024-03-06T05:30:54;43.25;;;23.33;;
61013;SDS011;46899;47.542;19.082;2024-03-06T05:34:20;40.67;;;23.25;;
61013;SDS011;46899;47.542;19.082;2024-03-06T05:37:49;40.35;;;22.55;;
61013;SDS011;46899;47.542;19.082;2024-03-06T05:41:14;42.38;;;23.92;;
61013;SDS011;46899;47.542;19.082;2024-03-06T05:44:43;44.25;;;23.20;;
61013;SDS011;46899;47.542;19.082;2024-03-06T05:48:13;43.97;;;23.38;;
61013;SDS011;46899;47.542;19.082;2024-03-06T05:51:41;43.53;;;22.85;;
61013;SDS011;46899;47.542;19.082;2024-03-06T05:55:07;43.95;;;22.48;;
61013;SDS011;46899;47.542;19.082;2024-03-06T05:58:29;43.33;;;22.87;;
61013;SDS011;46899;47.542;19.082;2024-03-06T06:01:40;39.70;;;22.55;;
61013;SDS011;46899;47.542;19.082;2024-03-06T06:04:45;39.30;;;22.65;;
61013;SDS011;46899;47.542;19.082;2024-03-06T06:08:07;42.35;;;24.73;;
61013;SDS011;46899;47.542;19.082;2024-03-06T06:11:14;45.00;;;24.58;;
61013;SDS011;46899;47.542;19.082;2024-03-06T06:14:18;45.72;;;24.83;;
61013;SDS011;46899;47.542;19.082;2024-03-06T06:17:27;47.47;;;25.83;;
61013;SDS011;46899;47.542;19.082;2024-03-06T06:20:30;48.50;;;26.37;;
61013;SDS011;46899;47.542;19.082;2024-03-06T06:23:40;44.05;;;25.60;;
61013;SDS011;46899;47.542;19.082;2024-03-06T06:26:50;43.15;;;25.10;;
61013;SDS011;46899;47.542;19.082;2024-03-06T06:29:57;47.75;;;25.23;;
61013;SDS011;46899;47.542;19.082;2024-03-06T06:33:09;44.72;;;25.62;;
61013;SDS011;46899;47.542;19.082;2024-03-06T06:36:13;43.22;;;24.60;;
61013;SDS011;46899;47.542;19.082;2024-03-06T06:39:16;45.25;;;24.83;;
61013;SDS011;46899;47.542;19.082;2024-03-06T06:42:24;37.78;;;22.73;;
61013;SDS011;46899;47.542;19.082;2024-03-06T06:45:34;39.25;;;23.80;;
61013;SDS011;46899;47.542;19.082;2024-03-06T06:48:38;36.78;;;21.77;;
61013;SDS011;46899;47.542;19.082;2024-03-06T06:51:41;37.22;;;22.40;;
61013;SDS011;46899;47.542;19.082;2024-03-06T06:54:45;39.03;;;22.05;;
61013;SDS011;46899;47.542;19.082;2024-03-06T06:57:52;37.92;;;22.15;;
61013;SDS011;46899;47.542;19.082;2024-03-06T07:00:59;39.80;;;22.75;;
61013;SDS011;46899;47.542;19.082;2024-03-06T07:04:07;39.92;;;22.98;;
61013;SDS011;46899;47.542;19.082;2024-03-06T07:07:17;40.15;;;25.55;;
61013;SDS011;46899;47.542;19.082;2024-03-06T07:10:23;36.92;;;23.60;;
61013;SDS011;46899;47.542;19.082;2024-03-06T07:13:29;36.03;;;22.02;;
61013;SDS011;46899;47.542;19.082;2024-03-06T07:16:32;32.80;;;21.62;;
61013;SDS011;46899;47.542;19.082;2024-03-06T07:19:40;36.65;;;21.58;;
61013;SDS011;46899;47.542;19.082;2024-03-06T07:22:45;29.63;;;20.50;;
61013;SDS011;46899;47.542;19.082;2024-03-06T07:25:51;38.10;;;22.80;;
61013;SDS011;46899;47.542;19.082;2024-03-06T07:29:00;35.75;;;23.33;;
61013;SDS011;46899;47.542;19.082;2024-03-06T07:32:09;31.10;;;19.55;;
61013;SDS011;46899;47.542;19.082;2024-03-06T07:35:18;35.75;;;21.40;;
61013;SDS011;46899;47.542;19.082;2024-03-06T07:38:25;32.05;;;21.00;;
61013;SDS011;46899;47.542;19.082;2024-03-06T07:41:32;29.92;;;20.25;;
61013;SDS011;46899;47.542;19.082;2024-03-06T07:44:39;29.98;;;20.23;;
61013;SDS011;46899;47.542;19.082;2024-03-06T07:47:49;30.75;;;20.85;;
61013;SDS011;46899;47.542;19.082;2024-03-06T07:50:57;32.42;;;19.52;;
61013;SDS011;46899;47.542;19.082;2024-03-06T07:54:08;30.88;;;20.45;;
61013;SDS011;46899;47.542;19.082;2024-03-06T07:57:22;29.42;;;18.92;;
61013;SDS011;46899;47.542;19.082;2024-03-06T08:00:31;28.77;;;19.52;;
61013;SDS011;46899;47.542;19.082;2024-03-06T08:03:40;31.62;;;19.27;;
61013;SDS011;46899;47.542;19.082;2024-03-06T08:06:53;29.75;;;17.00;;
61013;SDS011;46899;47.542;19.082;2024-03-06T08:10:04;23.98;;;16.73;;
61013;SDS011;46899;47.542;19.082;2024-03-06T08:13:15;26.60;;;17.27;;
61013;SDS011;46899;47.542;19.082;2024-03-06T08:16:26;24.40;;;17.25;;
61013;SDS011;46899;47.542;19.082;2024-03-06T08:19:39;26.75;;;17.70;;
61013;SDS011;46899;47.542;19.082;2024-03-06T08:22:47;26.60;;;18.10;;
61013;SDS011;46899;47.542;19.082;2024-03-06T08:25:52;23.55;;;16.48;;
61013;SDS011;46899;47.542;19.082;2024-03-06T08:29:02;23.90;;;15.05;;
61013;SDS011;46899;47.542;19.082;2024-03-06T08:32:08;19.67;;;14.60;;
61013;SDS011;46899;47.542;19.082;2024-03-06T08:35:17;18.08;;;13.30;;
61013;SDS011;46899;47.542;19.082;2024-03-06T08:38:28;20.42;;;13.35;;
61013;SDS011;46899;47.542;19.082;2024-03-06T08:41:37;20.23;;;12.93;;
61013;SDS011;46899;47.542;19.082;2024-03-06T08:44:42;16.25;;;12.07;;
61013;SDS011;46899;47.542;19.082;2024-03-06T08:47:51;19.67;;;12.32;;
61013;SDS011;46899;47.542;19.082;2024-03-06T08:51:04;18.33;;;13.43;;
61013;SDS011;46899;47.542;19.082;2024-03-06T08:57:35;17.73;;;12.40;;
61013;SDS011;46899;47.542;19.082;2024-03-06T09:00:42;15.80;;;11.48;;
61013;SDS011;46899;47.542;19.082;2024-03-06T09:03:55;13.88;;;10.35;;
61013;SDS011;46899;47.542;19.082;2024-03-06T09:07:09;15.00;;;11.05;;
61013;SDS011;46899;47.542;19.082;2024-03-06T09:10:20;12.37;;;10.05;;
61013;SDS011;46899;47.542;19.082;2024-03-06T09:13:30;13.18;;;9.32;;
61013;SDS011;46899;47.542;19.082;2024-03-06T09:16:39;13.15;;;9.27;;
61013;SDS011;46899;47.542;19.082;2024-03-06T09:19:47;14.10;;;9.85;;
61013;SDS011;46899;47.542;19.082;2024-03-06T09:23:16;15.70;;;9.38;;
61013;SDS011;46899;47.542;19.082;2024-03-06T09:26:24;19.80;;;10.75;;
61013;SDS011;46899;47.542;19.082;2024-03-06T09:29:29;12.57;;;9.23;;
61013;SDS011;46899;47.542;19.082;2024-03-06T09:32:37;11.60;;;8.32;;
61013;SDS011;46899;47.542;19.082;2024-03-06T09:35:46;11.25;;;8.73;;
61013;SDS011;46899;47.542;19.082;2024-03-06T09:38:53;12.35;;;8.02;;
61013;SDS011;46899;47.542;19.082;2024-03-06T09:42:06;10.82;;;7.97;;
61013;SDS011;46899;47.542;19.082;2024-03-06T09:45:17;10.63;;;7.68;;
61013;SDS011;46899;47.542;19.082;2024-03-06T09:48:28;15.40;;;8.60;;
61013;SDS011;46899;47.542;19.082;2024-03-06T09:51:47;14.68;;;8.77;;
61013;SDS011;46899;47.542;19.082;2024-03-06T09:55:03;13.38;;;8.50;;
61013;SDS011;46899;47.542;19.082;2024-03-06T09:58:09;12.35;;;7.87;;
61013;SDS011;46899;47.542;19.082;2024-03-06T10:01:14;10.93;;;7.72;;
61013;SDS011;46899;47.542;19.082;2024-03-06T10:04:25;12.32;;;8.07;;
61013;SDS011;46899;47.542;19.082;2024-03-06T10:07:32;12.70;;;9.15;;
61013;SDS011;46899;47.542;19.082;2024-03-06T10:10:42;13.88;;;9.52;;
61013;SDS011;46899;47.542;19.082;2024-03-06T10:13:55;12.40;;;8.50;;
61013;SDS011;46899;47.542;19.082;2024-03-06T10:17:11;12.23;;;8.43;;
61013;SDS011;46899;47.542;19.082;2024-03-06T10:20:30;14.07;;;8.48;;
61013;SDS011;46899;47.542;19.082;2024-03-06T10:23:47;12.98;;;8.75;;
61013;SDS011;46899;47.542;19.082;2024-03-06T10:26:58;11.30;;;8.88;;
61013;SDS011;46899;47.542;19.082;2024-03-06T10:30:12;13.60;;;9.10;;
61013;SDS011;46899;47.542;19.082;2024-03-06T10:33:24;14.40;;;8.90;;
61013;SDS011;46899;47.542;19.082;2024-03-06T10:36:39;13.55;;;9.40;;
61013;SDS011;46899;47.542;19.082;2024-03-06T10:39:52;12.50;;;8.88;;
61013;SDS011;46899;47.542;19.082;2024-03-06T10:43:07;12.37;;;8.20;;
61013;SDS011;46899;47.542;19.082;2024-03-06T10:46:15;14.05;;;8.82;;
61013;SDS011;46899;47.542;19.082;2024-03-06T10:49:28;13.38;;;9.20;;
61013;SDS011;46899;47.542;19.082;2024-03-06T10:52:38;12.95;;;8.20;;
61013;SDS011;46899;47.542;19.082;2024-03-06T10:55:51;12.18;;;8.02;;
61013;SDS011;46899;47.542;19.082;2024-03-06T10:59:03;13.90;;;8.93;;
61013;SDS011;46899;47.542;19.082;2024-03-06T11:02:14;12.80;;;8.77;;
61013;SDS011;46899;47.542;19.082;2024-03-06T11:05:24;14.65;;;8.85;;
61013;SDS011;46899;47.542;19.082;2024-03-06T11:08:34;13.73;;;8.10;;
61013;SDS011;46899;47.542;19.082;2024-03-06T11:11:49;15.63;;;8.07;;
61013;SDS011;46899;47.542;19.082;2024-03-06T11:14:57;10.60;;;7.75;;
61013;SDS011;46899;47.542;19.082;2024-03-06T11:21:45;13.43;;;8.25;;
61013;SDS011;46899;47.542;19.082;2024-03-06T11:24:52;12.23;;;8.68;;
61013;SDS011;46899;47.542;19.082;2024-03-06T11:31:10;14.52;;;8.82;;
61013;SDS011;46899;47.542;19.082;2024-03-06T11:34:24;14.23;;;8.55;;
61013;SDS011;46899;47.542;19.082;2024-03-06T11:37:27;14.57;;;9.80;;
61013;SDS011;46899;47.542;19.082;2024-03-06T11:40:32;14.70;;;9.48;;
61013;SDS011;46899;47.542;19.082;2024-03-06T11:43:50;13.57;;;8.63;;
61013;SDS011;46899;47.542;19.082;2024-03-06T11:47:00;17.45;;;9.63;;
61013;SDS011;46899;47.542;19.082;2024-03-06T11:50:05;13.02;;;9.45;;
61013;SDS011;46899;47.542;19.082;2024-03-06T11:53:15;13.52;;;9.45;;
61013;SDS011;46899;47.542;19.082;2024-03-06T11:56:24;12.45;;;9.35;;
61013;SDS011;46899;47.542;19.082;2024-03-06T11:59:32;14.68;;;10.30;;
61013;SDS011;46899;47.542;19.082;2024-03-06T12:02:38;14.60;;;9.30;;
61013;SDS011;46899;47.542;19.082;2024-03-06T12:05:44;12.80;;;9.95;;
61013;SDS011;46899;47.542;19.082;2024-03-06T12:08:53;18.08;;;10.05;;
61013;SDS011;46899;47.542;19.082;2024-03-06T12:11:58;17.48;;;10.02;;
61013;SDS011;46899;47.542;19.082;2024-03-06T12:15:03;13.62;;;9.45;;
61013;SDS011;46899;47.542;19.082;2024-03-06T12:18:09;15.75;;;9.63;;
61013;SDS011;46899;47.542;19.082;2024-03-06T12:21:12;12.55;;;8.88;;
61013;SDS011;46899;47.542;19.082;2024-03-06T12:24:19;11.25;;;8.32;;
61013;SDS011;46899;47.542;19.082;2024-03-06T12:27:26;13.70;;;8.65;;
61013;SDS011;46899;47.542;19.082;2024-03-06T12:30:38;12.25;;;8.63;;
61013;SDS011;46899;47.542;19.082;2024-03-06T12:33:45;13.62;;;9.50;;
61013;SDS011;46899;47.542;19.082;2024-03-06T12:36:50;13.15;;;8.93;;
61013;SDS011;46899;47.542;19.082;2024-03-06T12:39:57;14.50;;;8.10;;
61013;SDS011;46899;47.542;19.082;2024-03-06T12:43:03;10.90;;;7.75;;
61013;SDS011;46899;47.542;19.082;2024-03-06T12:46:09;14.55;;;8.10;;
61013;SDS011;46899;47.542;19.082;2024-03-06T12:49:12;11.40;;;8.05;;
61013;SDS011;46899;47.542;19.082;2024-03-06T12:52:17;12.27;;;8.20;;
61013;SDS011;46899;47.542;19.082;2024-03-06T12:55:22;13.27;;;8.95;;
61013;SDS011;46899;47.542;19.082;2024-03-06T12:58:26;12.87;;;8.50;;
61013;SDS011;46899;47.542;19.082;2024-03-06T13:01:32;13.50;;;7.75;;
61013;SDS011;46899;47.542;19.082;2024-03-06T13:04:38;13.43;;;8.25;;
61013;SDS011;46899;47.542;19.082;2024-03-06T13:07:43;13.07;;;8.45;;
61013;SDS011;46899;47.542;19.082;2024-03-06T13:10:49;11.05;;;8.40;;
61013;SDS011;46899;47.542;19.082;2024-03-06T13:13:54;12.37;;;8.43;;
61013;SDS011;46899;47.542;19.082;2024-03-06T13:16:59;13.27;;;8.35;;
61013;SDS011;46899;47.542;19.082;2024-03-06T13:20:07;22.90;;;12.25;;
61013;SDS011;46899;47.542;19.082;2024-03-06T13:23:18;25.67;;;14.00;;
61013;SDS011;46899;47.542;19.082;2024-03-06T13:26:24;26.95;;;16.33;;
61013;SDS011;46899;47.542;19.082;2024-03-06T13:29:27;21.60;;;14.32;;
61013;SDS011;46899;47.542;19.082;2024-03-06T13:32:31;21.98;;;14.15;;
61013;SDS011;46899;47.542;19.082;2024-03-06T13:35:35;21.10;;;14.07;;
61013;SDS011;46899;47.542;19.082;2024-03-06T13:38:41;21.92;;;14.38;;
61013;SDS011;46899;47.542;19.082;2024-03-06T13:41:50;22.50;;;14.87;;
61013;SDS011;46899;47.542;19.082;2024-03-06T13:45:01;23.08;;;14.93;;
61013;SDS011;46899;47.542;19.082;2024-03-06T13:48:13;20.80;;;14.82;;
61013;SDS011;46899;47.542;19.082;2024-03-06T13:51:19;22.67;;;15.25;;
61013;SDS011;46899;47.542;19.082;2024-03-06T13:54:29;20.62;;;14.85;;
61013;SDS011;46899;47.542;19.082;2024-03-06T13:57:35;23.60;;;14.95;;
61013;SDS011;46899;47.542;19.082;2024-03-06T14:00:44;24.77;;;15.05;;
61013;SDS011;46899;47.542;19.082;2024-03-06T14:03:56;23.40;;;15.43;;
61013;SDS011;46899;47.542;19.082;2024-03-06T14:10:22;23.87;;;16.35;;
61013;SDS011;46899;47.542;19.082;2024-03-06T14:13:30;22.73;;;16.85;;
61013;SDS011;46899;47.542;19.082;2024-03-06T14:16:41;18.67;;;13.25;;
61013;SDS011;46899;47.542;19.082;2024-03-06T14:19:51;18.75;;;12.95;;
61013;SDS011;46899;47.542;19.082;2024-03-06T14:23:03;17.77;;;12.95;;
61013;SDS011;46899;47.542;19.082;2024-03-06T14:26:17;16.65;;;12.25;;
61013;SDS011;46899;47.542;19.082;2024-03-06T14:29:31;16.58;;;11.10;;
61013;SDS011;46899;47.542;19.082;2024-03-06T14:32:35;16.95;;;11.75;;
61013;SDS011;46899;47.542;19.082;2024-03-06T14:35:48;17.95;;;11.75;;
61013;SDS011;46899;47.542;19.082;2024-03-06T14:38:57;17.70;;;12.02;;
61013;SDS011;46899;47.542;19.082;2024-03-06T14:42:07;18.42;;;11.93;;
61013;SDS011;46899;47.542;19.082;2024-03-06T14:45:18;19.35;;;11.38;;
61013;SDS011;46899;47.542;19.082;2024-03-06T14:48:25;18.85;;;11.95;;
61013;SDS011;46899;47.542;19.082;2024-03-06T14:51:35;18.50;;;11.45;;
61013;SDS011;46899;47.542;19.082;2024-03-06T14:54:47;17.98;;;10.77;;
61013;SDS011;46899;47.542;19.082;2024-03-06T14:57:53;16.90;;;11.60;;
61013;SDS011;46899;47.542;19.082;2024-03-06T15:01:03;18.92;;;11.75;;
61013;SDS011;46899;47.542;19.082;2024-03-06T15:04:16;16.25;;;11.63;;
61013;SDS011;46899;47.542;19.082;2024-03-06T15:07:27;17.70;;;12.15;;
61013;SDS011;46899;47.542;19.082;2024-03-06T15:10:38;20.55;;;13.48;;
61013;SDS011;46899;47.542;19.082;2024-03-06T15:13:51;22.25;;;13.27;;
61013;SDS011;46899;47.542;19.082;2024-03-06T15:17:03;21.83;;;12.55;;
61013;SDS011;46899;47.542;19.082;2024-03-06T15:20:18;18.37;;;11.60;;
61013;SDS011;46899;47.542;19.082;2024-03-06T15:23:26;18.58;;;11.73;;
61013;SDS011;46899;47.542;19.082;2024-03-06T15:26:38;18.77;;;11.40;;
61013;SDS011;46899;47.542;19.082;2024-03-06T15:29:43;19.05;;;10.80;;
61013;SDS011;46899;47.542;19.082;2024-03-06T15:32:57;16.67;;;10.55;;
61013;SDS011;46899;47.542;19.082;2024-03-06T15:36:10;14.57;;;9.63;;
61013;SDS011;46899;47.542;19.082;2024-03-06T15:39:18;14.07;;;9.70;;
61013;SDS011;46899;47.542;19.082;2024-03-06T15:42:26;13.65;;;9.43;;
61013;SDS011;46899;47.542;19.082;2024-03-06T15:45:38;15.50;;;9.85;;
61013;SDS011;46899;47.542;19.082;2024-03-06T15:48:49;14.10;;;9.35;;
61013;SDS011;46899;47.542;19.082;2024-03-06T15:52:00;14.55;;;10.52;;
61013;SDS011;46899;47.542;19.082;2024-03-06T15:55:09;12.98;;;9.57;;
61013;SDS011;46899;47.542;19.082;2024-03-06T15:58:17;15.30;;;9.80;;
61013;SDS011;46899;47.542;19.082;2024-03-06T16:01:29;12.52;;;9.07;;
61013;SDS011;46899;47.542;19.082;2024-03-06T16:04:42;15.35;;;9.25;;
61013;SDS011;46899;47.542;19.082;2024-03-06T16:07:51;17.40;;;10.63;;
61013;SDS011;46899;47.542;19.082;2024-03-06T16:11:13;16.33;;;11.55;;
61013;SDS011;46899;47.542;19.082;2024-03-06T16:14:21;17.12;;;11.48;;
61013;SDS011;46899;47.542;19.082;2024-03-06T16:17:26;18.83;;;12.52;;
61013;SDS011;46899;47.542;19.082;2024-03-06T16:20:38;16.67;;;10.68;;
61013;SDS011;46899;47.542;19.082;2024-03-06T16:23:48;18.45;;;11.18;;
61013;SDS011;46899;47.542;19.082;2024-03-06T16:26:56;18.75;;;12.52;;
61013;SDS011;46899;47.542;19.082;2024-03-06T16:30:03;20.85;;;13.60;;
61013;SDS011;46899;47.542;19.082;2024-03-06T16:33:20;20.55;;;13.57;;
61013;SDS011;46899;47.542;19.082;2024-03-06T16:36:32;20.20;;;13.43;;
61013;SDS011;46899;47.542;19.082;2024-03-06T16:39:43;21.27;;;13.60;;
61013;SDS011;46899;47.542;19.082;2024-03-06T16:42:59;21.92;;;13.30;;
61013;SDS011;46899;47.542;19.082;2024-03-06T16:46:11;19.42;;;12.93;;
61013;SDS011;46899;47.542;19.082;2024-03-06T16:49:24;19.35;;;12.50;;
61013;SDS011;46899;47.542;19.082;2024-03-06T16:52:35;18.52;;;12.68;;
61013;SDS011;46899;47.542;19.082;2024-03-06T16:55:48;23.45;;;13.68;;
61013;SDS011;46899;47.542;19.082;2024-03-06T16:59:00;20.67;;;13.30;;
61013;SDS011;46899;47.542;19.082;2024-03-06T17:02:14;18.65;;;11.15;;
61013;SDS011;46899;47.542;19.082;2024-03-06T17:05:23;16.85;;;10.85;;
61013;SDS011;46899;47.542;19.082;2024-03-06T17:08:33;13.48;;;8.45;;
61013;SDS011;46899;47.542;19.082;2024-03-06T17:11:47;13.05;;;8.00;;
61013;SDS011;46899;47.542;19.082;2024-03-06T17:14:59;11.00;;;7.60;;
61013;SDS011;46899;47.542;19.082;2024-03-06T17:18:13;14.15;;;7.75;;
61013;SDS011;46899;47.542;19.082;2024-03-06T17:21:25;12.95;;;7.72;;
61013;SDS011;46899;47.542;19.082;2024-03-06T17:24:38;9.60;;;7.07;;
61013;SDS011;46899;47.542;19.082;2024-03-06T17:27:51;9.75;;;6.50;;
61013;SDS011;46899;47.542;19.082;2024-03-06T17:31:02;11.70;;;7.12;;
61013;SDS011;46899;47.542;19.082;2024-03-06T17:34:18;12.55;;;8.10;;
61013;SDS011;46899;47.542;19.082;2024-03-06T17:37:28;13.27;;;8.40;;
61013;SDS011;46899;47.542;19.082;2024-03-06T17:40:43;15.30;;;8.75;;
61013;SDS011;46899;47.542;19.082;2024-03-06T17:43:56;16.48;;;8.57;;
61013;SDS011;46899;47.542;19.082;2024-03-06T17:47:07;12.15;;;7.57;;
61013;SDS011;46899;47.542;19.082;2024-03-06T17:50:17;11.07;;;8.10;;
61013;SDS011;46899;47.542;19.082;2024-03-06T17:53:26;12.88;;;8.50;;
61013;SDS011;46899;47.542;19.082;2024-03-06T17:56:37;10.82;;;7.43;;
61013;SDS011;46899;47.542;19.082;2024-03-06T17:59:53;13.32;;;6.95;;
61013;SDS011;46899;47.542;19.082;2024-03-06T18:03:01;11.82;;;7.25;;
61013;SDS011;46899;47.542;19.082;2024-03-06T18:06:12;9.95;;;6.75;;
61013;SDS011;46899;47.542;19.082;2024-03-06T18:09:23;12.23;;;7.18;;
61013;SDS011;46899;47.542;19.082;2024-03-06T18:12:35;13.70;;;8.32;;
61013;SDS011;46899;47.542;19.082;2024-03-06T18:15:45;9.75;;;7.00;;
61013;SDS011;46899;47.542;19.082;2024-03-06T18:18:59;13.07;;;8.02;;
61013;SDS011;46899;47.542;19.082;2024-03-06T18:22:13;13.05;;;7.90;;
61013;SDS011;46899;47.542;19.082;2024-03-06T18:25:24;12.98;;;7.70;;
61013;SDS011;46899;47.542;19.082;2024-03-06T18:28:35;12.80;;;7.62;;
61013;SDS011;46899;47.542;19.082;2024-03-06T18:31:48;11.48;;;6.37;;
61013;SDS011;46899;47.542;19.082;2024-03-06T18:35:01;12.95;;;7.47;;
61013;SDS011;46899;47.542;19.082;2024-03-06T18:38:14;10.55;;;7.43;;
61013;SDS011;46899;47.542;19.082;2024-03-06T18:41:26;12.70;;;7.95;;
61013;SDS011;46899;47.542;19.082;2024-03-06T18:44:37;13.52;;;8.30;;
61013;SDS011;46899;47.542;19.082;2024-03-06T18:47:48;15.05;;;8.70;;